Time;durP1;ratioP1;P1;durP2;ratioP2;P2;SDS_P1;SDS_P2;PMS_P1;PMS_P2;Temp;Humidity;BMP_temperature;BMP_pressure;BME280_temperature;BME280_humidity;BME280_pressure;Samples;Min_cycle;Max_cycle;Signal;HPM_P1;HPM_P2
2021/08/20 00:00:51;;;;;;;2.67;1.85;;;;;;;17.85;72.34;96717.66;5022413;28;20057;-82
2021/08/20 00:03:19;;;;;;;4.38;2.03;;;;;;;17.85;72.26;96715.00;5028071;28;20037;-82
2021/08/20 00:05:46;;;;;;;1.80;1.50;;;;;;;17.85;72.41;96716.84;5040512;28;20077;-82
2021/08/20 00:08:14;;;;;;;2.28;1.77;;;;;;;17.83;72.26;96713.63;5040286;28;20045;-81
2021/08/20 00:10:43;;;;;;;3.47;1.50;;;;;;;17.83;72.50;96713.63;5023538;28;20052;-82
2021/08/20 00:13:10;;;;;;;3.63;1.77;;;;;;;17.82;72.23;96718.09;5021806;28;20050;-82
2021/08/20 00:15:38;;;;;;;2.05;1.67;;;;;;;17.80;72.22;96719.31;5021148;28;20060;-82
2021/08/20 00:18:06;;;;;;;3.05;1.80;;;;;;;17.79;72.29;96717.72;5022203;28;20092;-82
2021/08/20 00:20:33;;;;;;;2.03;1.52;;;;;;;17.77;72.14;96717.91;5021535;28;20061;-82
2021/08/20 00:23:01;;;;;;;1.83;1.50;;;;;;;17.76;72.46;96712.88;5021101;28;20421;-82
2021/08/20 00:25:28;;;;;;;2.55;1.88;;;;;;;17.74;72.41;96718.38;5021692;28;20050;-82
2021/08/20 00:27:57;;;;;;;2.10;1.75;;;;;;;17.77;73.35;96722.41;5021719;28;20046;-82
2021/08/20 00:30:25;;;;;;;2.00;1.80;;;;;;;17.77;72.50;96715.28;5022119;28;20052;-82
2021/08/20 00:32:52;;;;;;;1.70;1.50;;;;;;;17.80;73.13;96719.31;5020985;28;20065;-82
2021/08/20 00:35:21;;;;;;;3.13;1.83;;;;;;;17.78;72.25;96710.84;5021540;28;20110;-82
2021/08/20 00:37:48;;;;;;;1.52;1.40;;;;;;;17.76;72.44;96707.63;5021533;28;20056;-82
2021/08/20 00:40:16;;;;;;;1.65;1.55;;;;;;;17.73;72.32;96706.19;5020793;28;20050;-82
2021/08/20 00:42:44;;;;;;;2.10;1.90;;;;;;;17.72;72.79;96707.25;5021019;28;20428;-82
2021/08/20 00:45:13;;;;;;;3.95;1.52;;;;;;;17.70;72.62;96704.03;5021444;28;20060;-82
2021/08/20 00:47:41;;;;;;;4.60;1.77;;;;;;;17.70;73.38;96694.28;5021120;28;20488;-82
2021/08/20 00:50:10;;;;;;;2.33;1.70;;;;;;;17.73;73.99;96705.41;5021205;28;20124;-82
2021/08/20 00:52:38;;;;;;;2.00;1.55;;;;;;;17.73;73.68;96703.56;5020961;28;20050;-82
2021/08/20 00:55:08;;;;;;;1.77;1.67;;;;;;;17.71;72.68;96700.38;5021268;28;20457;-82
2021/08/20 00:57:37;;;;;;;1.85;1.42;;;;;;;17.69;72.89;96710.34;5020654;28;20053;-81
2021/08/20 01:00:06;;;;;;;3.15;1.70;;;;;;;17.68;73.13;96701.59;5020594;28;20053;-82
2021/08/20 01:02:35;;;;;;;1.70;1.60;;;;;;;17.67;72.74;96704.47;5020410;28;20145;-82
2021/08/20 01:05:03;;;;;;;1.90;1.80;;;;;;;17.65;72.88;96704.69;5021040;28;20132;-82
2021/08/20 01:07:36;;;;;;;2.45;1.60;;;;;;;17.61;72.84;96700.91;5020352;28;20061;-82
2021/08/20 01:10:05;;;;;;;2.30;1.75;;;;;;;17.60;72.88;96704.56;5020384;28;20046;-82
2021/08/20 01:12:33;;;;;;;1.95;1.50;;;;;;;17.60;72.97;96701.94;5020667;28;20514;-82
2021/08/20 01:15:00;;;;;;;2.95;1.80;;;;;;;17.60;72.80;96698.47;5020264;28;20045;-82
2021/08/20 01:17:28;;;;;;;2.45;1.52;;;;;;;17.61;72.77;96697.47;5020057;28;20429;-82
2021/08/20 01:19:59;;;;;;;10.45;1.85;;;;;;;17.59;72.76;96702.94;5020161;28;20049;-82
2021/08/20 01:22:27;;;;;;;1.70;1.55;;;;;;;17.56;72.99;96692.03;5018727;28;20065;-82
2021/08/20 01:24:59;;;;;;;1.45;1.35;;;;;;;17.51;73.30;96695.34;5020446;28;20056;-82
2021/08/20 01:27:27;;;;;;;1.95;1.70;;;;;;;17.50;73.48;96693.75;5020104;28;20049;-82
2021/08/20 01:29:54;;;;;;;1.70;1.60;;;;;;;17.49;73.19;96692.13;5019897;28;20050;-82
2021/08/20 01:32:22;;;;;;;2.25;1.60;;;;;;;17.47;73.18;96699.44;5019806;28;20065;-82
2021/08/20 01:34:50;;;;;;;1.40;1.30;;;;;;;17.46;73.34;96693.38;5020407;28;20046;-82
2021/08/20 01:37:18;;;;;;;2.63;1.80;;;;;;;17.44;73.24;96679.59;5019686;28;20054;-82
2021/08/20 01:39:45;;;;;;;1.80;1.63;;;;;;;17.47;74.86;96688.91;5020199;28;20069;-82
2021/08/20 01:42:14;;;;;;;1.73;1.63;;;;;;;17.48;73.75;96693.97;5019352;28;20065;-82
2021/08/20 01:44:42;;;;;;;2.38;1.90;;;;;;;17.46;73.73;96688.09;5019602;28;20064;-82
2021/08/20 01:47:11;;;;;;;2.53;1.85;;;;;;;17.45;73.20;96686.50;5019946;28;20046;-82
2021/08/20 01:49:39;;;;;;;2.65;1.90;;;;;;;17.45;73.32;96681.22;5020039;28;20053;-82
2021/08/20 01:52:09;;;;;;;4.28;2.05;;;;;;;17.45;73.22;96685.72;5020223;28;20517;-82
2021/08/20 01:54:36;;;;;;;2.47;2.08;;;;;;;17.44;72.96;96684.88;5019284;28;20052;-82
2021/08/20 01:57:04;;;;;;;3.92;2.00;;;;;;;17.40;73.07;96688.19;5019863;28;20052;-82
2021/08/20 01:59:34;;;;;;;2.53;1.85;;;;;;;17.38;73.24;96682.34;5020290;28;20058;-82
2021/08/20 02:02:02;;;;;;;2.70;2.20;;;;;;;17.37;73.32;96683.38;5020010;28;20060;-82
2021/08/20 02:04:29;;;;;;;3.65;1.90;;;;;;;17.36;73.13;96687.84;5018896;28;20128;-82
2021/08/20 02:06:57;;;;;;;2.75;1.75;;;;;;;17.36;73.25;96684.38;5019361;28;20053;-82
2021/08/20 02:09:25;;;;;;;2.08;1.80;;;;;;;17.35;73.18;96690.69;5019020;28;20054;-82
2021/08/20 02:11:52;;;;;;;3.70;2.17;;;;;;;17.35;73.34;96685.44;5019666;28;20049;-82
2021/08/20 02:14:20;;;;;;;3.60;2.08;;;;;;;17.35;73.33;96690.69;5019107;28;20049;-82
2021/08/20 02:16:49;;;;;;;2.47;1.92;;;;;;;17.36;73.24;96687.03;5018665;28;20050;-82
2021/08/20 02:19:16;;;;;;;3.58;2.00;;;;;;;17.36;73.18;96681.75;5019434;28;20422;-82
2021/08/20 02:21:44;;;;;;;2.10;1.90;;;;;;;17.37;73.34;96683.38;5019678;28;20516;-82
2021/08/20 02:24:12;;;;;;;2.97;1.80;;;;;;;17.35;73.38;96686.22;5018668;28;20049;-82
2021/08/20 02:26:39;;;;;;;2.55;1.85;;;;;;;17.33;73.11;96680.38;5018692;28;20053;-82
2021/08/20 02:29:07;;;;;;;2.88;2.10;;;;;;;17.34;73.41;96678.53;5018386;28;20048;-82
2021/08/20 02:31:34;;;;;;;3.53;2.08;;;;;;;17.35;73.31;96680.16;5018717;28;20057;-82
2021/08/20 02:34:03;;;;;;;2.42;1.83;;;;;;;17.34;73.40;96675.88;5018343;28;20053;-82
2021/08/20 02:36:31;;;;;;;2.15;1.55;;;;;;;17.36;74.28;96684.38;5018629;28;20050;-82
2021/08/20 02:38:59;;;;;;;2.67;1.58;;;;;;;17.41;75.33;96689.81;5019093;28;20050;-82
2021/08/20 02:41:26;;;;;;;2.00;1.80;;;;;;;17.49;75.85;96692.94;5019606;28;20045;-82
2021/08/20 02:43:54;;;;;;;3.17;2.30;;;;;;;17.55;76.34;96690.44;5019209;28;20046;-82
2021/08/20 02:46:22;;;;;;;2.17;1.63;;;;;;;17.60;76.10;96691.38;5018849;28;20054;-82
2021/08/20 02:48:50;;;;;;;2.92;2.10;;;;;;;17.58;73.85;96690.81;5019284;28;20054;-82
2021/08/20 02:51:18;;;;;;;2.90;1.85;;;;;;;17.55;73.40;96685.97;5018290;28;20440;-82
2021/08/20 02:53:46;;;;;;;2.85;1.80;;;;;;;17.54;73.29;96684.38;5018126;28;20501;-82
2021/08/20 02:56:15;;;;;;;1.95;1.75;;;;;;;17.54;73.05;96688.84;5019313;28;20049;-82
2021/08/20 02:58:42;;;;;;;2.88;1.60;;;;;;;17.51;73.08;96679.53;5018782;28;20057;-82
2021/08/20 03:01:10;;;;;;;1.90;1.77;;;;;;;17.49;73.04;96686.84;5018840;28;20060;-82
2021/08/20 03:03:37;;;;;;;2.97;1.75;;;;;;;17.49;73.09;96684.22;5018010;28;20049;-82
2021/08/20 03:06:05;;;;;;;2.50;1.75;;;;;;;17.46;73.26;96687.31;5017896;28;20425;-82
2021/08/20 03:08:34;;;;;;;2.75;1.85;;;;;;;17.44;73.29;96694.63;5017975;28;20053;-82
2021/08/20 03:11:02;;;;;;;2.65;1.63;;;;;;;17.42;73.84;96691.41;5019133;28;20060;-82
2021/08/20 03:13:29;;;;;;;1.88;1.70;;;;;;;17.40;73.53;96693.47;5017823;28;20057;-83
2021/08/20 03:15:57;;;;;;;1.90;1.75;;;;;;;17.39;73.57;96692.66;5042514;23;20046;-88
2021/08/20 03:18:24;;;;;;;1.75;1.65;;;;;;;17.38;73.52;96690.25;5009499;28;20058;-83
2021/08/20 03:20:52;;;;;;;3.70;1.88;;;;;;;17.35;73.59;96686.22;5008473;28;20046;-81
2021/08/20 03:23:19;;;;;;;2.65;1.70;;;;;;;17.34;73.59;96689.06;5007498;28;20081;-83
2021/08/20 03:25:48;;;;;;;2.00;1.80;;;;;;;17.35;73.61;96694.13;5007258;28;20046;-80
2021/08/20 03:28:16;;;;;;;2.08;1.70;;;;;;;17.37;74.91;96683.38;5006513;28;20050;-83
2021/08/20 03:30:43;;;;;;;2.13;1.65;;;;;;;17.38;74.86;96685.78;5006256;28;20042;-80
2021/08/20 03:33:12;;;;;;;4.25;2.03;;;;;;;17.41;75.27;96692.44;5006122;28;20050;-78
2021/08/20 03:35:39;;;;;;;3.53;2.65;;;;;;;17.45;74.85;96688.34;5004883;28;20061;-80
2021/08/20 03:38:07;;;;;;;1.48;1.38;;;;;;;17.50;76.30;96688.47;5004984;28;20054;-78
2021/08/20 03:40:35;;;;;;;3.10;1.58;;;;;;;17.48;74.39;96679.97;5006339;28;20046;-83
2021/08/20 03:43:03;;;;;;;3.28;1.63;;;;;;;17.46;74.18;96682.03;5006275;28;20074;-83
2021/08/20 03:45:31;;;;;;;2.53;1.88;;;;;;;17.44;73.94;96694.63;5007056;28;20046;-78
2021/08/20 03:47:59;;;;;;;4.55;1.77;;;;;;;17.38;73.89;96685.78;5009749;28;20054;-79
2021/08/20 03:50:26;;;;;;;2.83;1.55;;;;;;;17.37;74.59;96681.53;5009304;28;20054;-82
2021/08/20 03:52:54;;;;;;;3.30;1.73;;;;;;;17.37;74.60;96689.44;5008433;28;20077;-83
2021/08/20 03:55:22;;;;;;;4.03;1.60;;;;;;;17.36;74.31;96692.28;5008439;28;20491;-79
2021/08/20 03:57:53;;;;;;;2.50;1.92;;;;;;;17.32;74.11;96696.41;5008098;28;20050;-80
2021/08/20 04:00:22;;;;;;;2.00;1.70;;;;;;;17.30;74.03;96692.16;5008109;28;20050;-84
2021/08/20 04:02:50;;;;;;;2.97;2.03;;;;;;;17.29;74.36;96693.22;5006665;28;20104;-78
2021/08/20 04:05:20;;;;;;;2.20;1.80;;;;;;;17.30;74.19;96700.06;5006250;28;20490;-80
2021/08/20 04:07:48;;;;;;;3.00;1.60;;;;;;;17.34;74.40;96704.91;5006075;28;20530;-78
2021/08/20 04:10:15;;;;;;;7.88;3.05;;;;;;;17.38;75.23;96706.88;5005151;28;20054;-79
2021/08/20 04:12:43;;;;;;;7.40;2.22;;;;;;;17.41;74.82;96710.91;5004547;28;20057;-80
2021/08/20 04:15:11;;;;;;;3.50;2.25;;;;;;;17.39;74.18;96708.50;5004663;28;20058;-78
2021/08/20 04:17:40;;;;;;;2.00;1.80;;;;;;;17.39;74.03;96712.97;5003360;28;20121;-77
2021/08/20 04:20:08;;;;;;;2.42;2.22;;;;;;;17.41;74.24;96721.47;5004561;28;20054;-80
2021/08/20 04:22:36;;;;;;;4.30;2.90;;;;;;;17.44;74.26;96726.28;5004654;28;20054;-78
2021/08/20 04:25:05;;;;;;;3.58;2.45;;;;;;;17.43;74.55;96728.13;5005099;28;20057;-81
2021/08/20 04:27:32;;;;;;;3.10;2.75;;;;;;;17.47;75.63;96724.00;5011656;28;20044;-84
2021/08/20 04:30:00;;;;;;;4.82;3.13;;;;;;;17.48;74.31;96728.25;5012346;28;20053;-82
2021/08/20 04:32:28;;;;;;;2.17;1.98;;;;;;;17.47;74.01;96725.81;5011293;28;20060;-82
2021/08/20 04:34:56;;;;;;;2.35;2.00;;;;;;;17.43;74.05;96727.31;5010663;28;20051;-82
2021/08/20 04:37:24;;;;;;;4.00;1.77;;;;;;;17.40;73.90;96722.47;5011503;28;20054;-83
2021/08/20 04:39:52;;;;;;;3.10;2.40;;;;;;;17.36;74.13;96722.13;5012494;28;20081;-83
2021/08/20 04:42:19;;;;;;;2.17;1.90;;;;;;;17.34;74.97;96725.97;5011281;28;20050;-82
2021/08/20 04:44:47;;;;;;;2.72;1.85;;;;;;;17.35;75.35;96732.88;5011571;28;20058;-82
2021/08/20 04:47:14;;;;;;;4.05;1.90;;;;;;;17.39;76.46;96734.84;5011824;28;20053;-81
2021/08/20 04:49:42;;;;;;;2.25;1.67;;;;;;;17.39;74.77;96728.78;5011136;28;20060;-83
2021/08/20 04:52:13;;;;;;;2.50;1.77;;;;;;;17.36;74.44;96735.31;5010848;28;20058;-84
2021/08/20 04:54:41;;;;;;;5.50;2.25;;;;;;;17.36;74.38;96745.03;5011108;28;20053;-81
2021/08/20 04:57:09;;;;;;;3.25;2.22;;;;;;;17.37;75.11;96741.38;5010340;28;20043;-81
2021/08/20 05:00:00;;;;;;;10.07;2.67;;;;;;;17.38;75.64;96743.81;5011937;28;20136;-83
2021/08/20 05:02:29;;;;;;;2.83;2.05;;;;;;;17.45;76.43;96743.72;5004181;28;20097;-85
2021/08/20 05:04:57;;;;;;;4.25;2.25;;;;;;;17.46;76.83;96745.31;5011319;28;20081;-83
2021/08/20 05:07:26;;;;;;;6.20;2.80;;;;;;;17.46;75.10;96745.31;5010708;28;20058;-83
2021/08/20 05:09:53;;;;;;;4.03;2.05;;;;;;;17.47;75.97;96741.66;5010598;28;20060;-83
2021/08/20 05:12:21;;;;;;;2.53;2.15;;;;;;;17.46;74.65;96740.03;5011379;28;20054;-86
2021/08/20 05:14:49;;;;;;;2.42;2.10;;;;;;;17.46;75.47;96740.84;5011642;28;20057;-83
2021/08/20 05:17:16;;;;;;;3.53;2.08;;;;;;;17.44;74.56;96740.25;5011620;28;20050;-83
2021/08/20 05:19:44;;;;;;;3.67;1.65;;;;;;;17.45;74.41;96741.88;5011190;28;20065;-81
2021/08/20 05:22:11;;;;;;;7.63;2.58;;;;;;;17.42;74.00;96739.69;5010018;28;20506;-85
2021/08/20 05:24:40;;;;;;;2.20;2.00;;;;;;;17.40;74.20;96743.56;5009602;28;20062;-83
2021/08/20 05:27:08;;;;;;;5.45;2.17;;;;;;;17.38;74.30;96750.88;5009559;28;20417;-83
2021/08/20 05:29:35;;;;;;;2.80;2.22;;;;;;;17.37;74.66;96755.38;5009138;28;20573;-78
2021/08/20 05:32:03;;;;;;;6.40;2.08;;;;;;;17.36;74.69;96755.56;5007840;28;20050;-82
2021/08/20 05:34:31;;;;;;;2.10;1.75;;;;;;;17.37;74.92;96752.72;5008828;28;20046;-81
2021/08/20 05:36:58;;;;;;;2.35;1.92;;;;;;;17.38;74.46;96758.81;5011269;28;20050;-83
2021/08/20 05:39:26;;;;;;;2.90;1.77;;;;;;;17.36;74.41;96756.41;5010688;28;20127;-83
2021/08/20 05:41:55;;;;;;;3.60;2.28;;;;;;;17.35;74.26;96753.97;5010064;28;20050;-85
2021/08/20 05:44:22;;;;;;;3.35;1.83;;;;;;;17.35;74.28;96761.88;5010352;28;20386;-81
2021/08/20 05:46:50;;;;;;;2.92;1.92;;;;;;;17.34;74.18;96757.63;5010123;28;20426;-82
2021/08/20 05:49:17;;;;;;;5.07;1.98;;;;;;;17.31;74.19;96764.16;5010735;28;20050;-84
2021/08/20 05:51:45;;;;;;;4.13;2.05;;;;;;;17.28;74.52;96765.41;5010190;28;20062;-84
2021/08/20 05:54:13;;;;;;;2.45;2.08;;;;;;;17.29;74.62;96764.38;5010561;28;20060;-83
2021/08/20 05:56:40;;;;;;;3.88;2.25;;;;;;;17.32;74.64;96770.22;5010688;28;20051;-83
2021/08/20 05:59:10;;;;;;;6.22;2.25;;;;;;;17.33;74.68;96771.84;5009039;28;20056;-80
2021/08/20 06:01:38;;;;;;;2.10;1.90;;;;;;;17.32;74.69;96770.22;5009468;28;20417;-83
2021/08/20 06:04:06;;;;;;;4.85;2.17;;;;;;;17.33;74.46;96766.56;5009895;28;20097;-82
2021/08/20 06:06:37;;;;;;;5.15;2.08;;;;;;;17.33;74.76;96777.91;5009845;28;20061;-83
2021/08/20 06:09:05;;;;;;;3.55;2.25;;;;;;;17.35;74.62;96772.44;5010103;28;20050;-81
2021/08/20 06:11:33;;;;;;;1.88;1.65;;;;;;;17.35;74.73;96778.50;5008842;28;20110;-79
2021/08/20 06:14:01;;;;;;;3.60;1.80;;;;;;;17.37;74.91;96783.56;5008943;28;20050;-81
2021/08/20 06:16:30;;;;;;;4.07;2.17;;;;;;;17.37;74.96;96779.09;5009960;28;20046;-84
2021/08/20 06:18:58;;;;;;;2.72;1.80;;;;;;;17.40;74.83;96783.13;5010089;28;20105;-85
2021/08/20 06:21:25;;;;;;;2.40;2.08;;;;;;;17.42;76.35;96786.34;5010940;28;20058;-87
2021/08/20 06:23:53;;;;;;;4.97;1.83;;;;;;;17.46;76.03;96792.78;5009644;28;20050;-81
2021/08/20 06:26:20;;;;;;;3.13;2.20;;;;;;;17.47;75.85;96791.75;5008457;28;20057;-80
2021/08/20 06:28:48;;;;;;;2.75;2.30;;;;;;;17.50;76.61;96791.31;5010526;28;20046;-83
2021/08/20 06:31:16;;;;;;;2.28;2.05;;;;;;;17.54;75.38;96794.34;5011234;28;20057;-86
2021/08/20 06:33:45;;;;;;;2.42;2.15;;;;;;;17.55;75.05;96790.66;5011002;28;20054;-83
2021/08/20 06:36:12;;;;;;;6.03;2.38;;;;;;;17.55;74.64;96791.47;5010001;28;20053;-82
2021/08/20 06:38:40;;;;;;;2.25;2.05;;;;;;;17.56;75.00;96787.81;5008725;28;20061;-83
2021/08/20 06:41:07;;;;;;;5.75;2.10;;;;;;;17.59;75.23;96787.34;5008875;28;20058;-81
2021/08/20 06:43:35;;;;;;;1.92;1.80;;;;;;;17.64;76.15;96789.31;5007951;28;20060;-82
2021/08/20 06:46:03;;;;;;;4.68;2.10;;;;;;;17.66;74.85;96789.91;5009002;28;20066;-81
2021/08/20 06:48:30;;;;;;;3.25;2.30;;;;;;;17.66;74.49;96796.00;5007736;28;20058;-80
2021/08/20 06:50:59;;;;;;;4.82;1.90;;;;;;;17.67;75.07;96802.88;5006844;28;20047;-82
2021/08/20 06:53:28;;;;;;;3.03;1.95;;;;;;;17.70;74.30;96806.91;5006704;28;20111;-80
2021/08/20 06:55:56;;;;;;;2.25;2.03;;;;;;;17.70;74.05;96801.63;5006783;28;20046;-80
2021/08/20 06:58:24;;;;;;;5.97;2.05;;;;;;;17.73;73.86;96803.03;5006079;28;20058;-80
2021/08/20 07:00:51;;;;;;;3.45;1.92;;;;;;;17.73;73.71;96803.81;5005900;28;20046;-79
2021/08/20 07:03:20;;;;;;;3.40;1.88;;;;;;;17.72;73.48;96791.66;5006144;28;20054;-82
2021/08/20 07:05:47;;;;;;;3.08;1.83;;;;;;;17.73;73.68;96797.75;5008871;28;20085;-83
2021/08/20 07:08:16;;;;;;;3.33;2.05;;;;;;;17.75;73.89;96800.97;5008343;28;20038;-82
2021/08/20 07:10:44;;;;;;;2.25;1.85;;;;;;;17.78;74.66;96795.25;5007717;28;20566;-80
2021/08/20 07:13:11;;;;;;;4.78;2.50;;;;;;;17.81;73.94;96792.16;5008746;28;20050;-82
2021/08/20 07:15:39;;;;;;;4.53;2.55;;;;;;;17.83;73.95;96792.78;5008885;28;20426;-83
2021/08/20 07:18:07;;;;;;;4.15;2.20;;;;;;;17.89;75.83;96802.44;5008136;28;20053;-84
2021/08/20 07:20:34;;;;;;;2.78;2.00;;;;;;;17.97;76.14;96798.69;5010350;28;20054;-83
2021/08/20 07:23:02;;;;;;;2.65;1.90;;;;;;;17.99;73.90;96802.69;5010619;28;20060;-79
2021/08/20 07:25:31;;;;;;;7.10;2.72;;;;;;;17.99;73.17;96802.69;5011634;28;20048;-78
2021/08/20 07:27:59;;;;;;;3.13;2.00;;;;;;;18.02;73.12;96804.91;5011281;28;20054;-83
2021/08/20 07:30:27;;;;;;;7.30;2.15;;;;;;;18.07;72.51;96810.31;5010979;28;20060;-83
2021/08/20 07:32:54;;;;;;;5.07;2.60;;;;;;;18.09;72.38;96808.25;5009748;28;20122;-81
2021/08/20 07:35:22;;;;;;;4.07;3.67;;;;;;;18.18;73.74;96815.88;5009303;28;20058;-79
2021/08/20 07:37:50;;;;;;;6.07;4.07;;;;;;;18.26;73.74;96808.44;5005805;28;20109;-81
2021/08/20 07:40:17;;;;;;;5.38;3.08;;;;;;;18.35;74.64;96806.28;5005058;28;20430;-79
2021/08/20 07:42:46;;;;;;;5.20;2.83;;;;;;;18.40;73.25;96809.03;5004056;28;20058;-83
2021/08/20 07:45:14;;;;;;;6.03;2.35;;;;;;;18.47;72.89;96806.28;5004255;28;20442;-79
2021/08/20 07:47:46;;;;;;;10.13;3.15;;;;;;;18.53;72.70;96808.84;5003397;28;20049;-78
2021/08/20 07:50:15;;;;;;;4.13;2.95;;;;;;;18.59;71.38;96801.84;5004110;28;20053;-78
2021/08/20 07:52:44;;;;;;;3.70;2.42;;;;;;;18.67;71.59;96808.63;5003963;28;20095;-79
2021/08/20 07:55:11;;;;;;;4.68;3.75;;;;;;;18.76;70.72;96806.44;5002847;28;20052;-79
2021/08/20 07:57:52;;;;;;;4.30;2.10;;;;;;;18.81;68.58;96807.41;5003158;28;20046;-79
2021/08/20 08:00:21;;;;;;;3.22;2.28;;;;;;;18.89;72.14;96804.44;5003098;28;20046;-77
2021/08/20 08:02:49;;;;;;;6.18;2.42;;;;;;;19.00;72.17;96804.66;5002143;28;20105;-77
2021/08/20 08:05:18;;;;;;;4.78;2.60;;;;;;;19.08;71.29;96812.25;5002940;28;20073;-79
2021/08/20 08:07:45;;;;;;;4.38;2.75;;;;;;;19.13;69.36;96813.19;5004075;28;20046;-81
2021/08/20 08:10:13;;;;;;;3.40;2.33;;;;;;;19.22;70.19;96812.81;5002166;28;20054;-79
2021/08/20 08:12:41;;;;;;;4.88;2.95;;;;;;;19.30;69.20;96813.25;5002487;28;20129;-79
2021/08/20 08:15:11;;;;;;;5.15;2.92;;;;;;;19.39;68.68;96820.84;5001638;28;20050;-82
2021/08/20 08:17:39;;;;;;;2.50;2.25;;;;;;;19.48;69.47;96822.09;5001066;28;20055;-79
2021/08/20 08:20:09;;;;;;;5.32;2.83;;;;;;;19.56;68.53;96816.44;5000945;28;20050;-79
2021/08/20 08:22:37;;;;;;;3.30;2.90;;;;;;;19.65;68.53;96822.97;5001735;28;20048;-78
2021/08/20 08:25:06;;;;;;;3.85;3.22;;;;;;;19.73;67.36;96817.34;5003081;28;20506;-78
2021/08/20 08:27:44;;;;;;;4.28;2.83;;;;;;;19.83;66.33;96818.59;5001436;28;20050;-79
2021/08/20 08:30:13;;;;;;;3.53;2.75;;;;;;;20.00;67.37;96831.88;5001243;28;20050;-78
2021/08/20 08:32:41;;;;;;;4.50;3.20;;;;;;;20.14;67.11;96826.06;4999810;28;20050;-78
2021/08/20 08:35:09;;;;;;;5.78;3.58;;;;;;;20.27;67.52;96832.09;5004272;28;20054;-84
2021/08/20 08:37:37;;;;;;;5.07;3.80;;;;;;;20.40;65.22;96826.53;5011391;28;20065;-82
2021/08/20 08:40:06;;;;;;;7.40;3.70;;;;;;;20.57;65.16;96831.88;5009912;28;20097;-82
2021/08/20 08:42:34;;;;;;;5.05;3.78;;;;;;;20.70;65.00;96831.56;5009559;28;20518;-81
2021/08/20 08:45:03;;;;;;;5.70;2.95;;;;;;;20.83;64.36;96830.44;5008126;28;20069;-80
2021/08/20 08:47:34;;;;;;;5.65;2.95;;;;;;;20.99;63.17;96837.59;5007649;28;20498;-82
2021/08/20 08:50:07;;;;;;;4.05;3.30;;;;;;;21.15;62.26;96835.97;5009281;28;20062;-83
2021/08/20 08:52:36;;;;;;;3.05;2.70;;;;;;;21.28;61.48;96836.69;5007560;28;20082;-82
2021/08/20 08:55:06;;;;;;;3.35;2.38;;;;;;;21.42;60.67;96832.63;5008096;28;20069;-83
2021/08/20 08:57:34;;;;;;;4.78;2.63;;;;;;;21.54;60.12;96835.19;5006046;28;20065;-79
2021/08/20 09:00:04;;;;;;;4.18;3.00;;;;;;;21.64;59.93;96835.31;5003016;28;20477;-79
2021/08/20 09:02:35;;;;;;;3.47;2.85;;;;;;;21.74;59.61;96835.44;5001317;28;20561;-79
2021/08/20 09:05:04;;;;;;;3.35;2.58;;;;;;;21.88;60.82;96825.25;5000558;28;20055;-78
2021/08/20 09:07:35;;;;;;;5.55;3.15;;;;;;;22.01;60.47;96826.72;5000751;28;20054;-78
2021/08/20 09:10:10;;;;;;;3.25;2.63;;;;;;;22.16;60.01;96823.41;5000284;28;20073;-78
2021/08/20 09:12:37;;;;;;;3.45;2.72;;;;;;;22.32;59.85;96825.19;4999929;28;20060;-79
2021/08/20 09:15:07;;;;;;;3.40;2.80;;;;;;;22.41;57.97;96829.03;4999637;28;20050;-80
2021/08/20 09:28:26;;;;;;;4.72;2.47;;;;;;;23.00;56.70;96830.84;5228915;23;20069;-80
2021/08/20 09:31:06;;;;;;;4.40;2.38;;;;;;;23.10;56.48;96821.34;5028826;28;20058;-80
2021/08/20 09:33:36;;;;;;;2.97;1.70;;;;;;;23.12;54.98;96824.53;5029263;28;20109;-80
2021/08/20 09:36:06;;;;;;;2.45;1.88;;;;;;;23.11;54.37;96826.41;5029369;28;20060;-80
2021/08/20 09:38:36;;;;;;;4.13;2.17;;;;;;;23.13;56.17;96834.13;5030388;28;20148;-80
2021/08/20 09:41:07;;;;;;;4.43;2.08;;;;;;;23.16;55.91;96828.31;5029099;28;20064;-80
2021/08/20 09:43:37;;;;;;;2.92;2.10;;;;;;;23.13;54.71;96828.78;5028595;28;20057;-80
2021/08/20 09:46:08;;;;;;;2.55;2.33;;;;;;;23.08;55.36;96834.09;5029945;28;20049;-80
2021/08/20 09:48:41;;;;;;;3.25;2.10;;;;;;;23.00;54.21;96838.84;5030172;28;20050;-79
2021/08/20 09:51:09;;;;;;;4.72;2.30;;;;;;;22.97;55.52;96831.31;5029882;28;20049;-80
2021/08/20 09:53:36;;;;;;;5.28;2.05;;;;;;;23.00;54.96;96830.84;5029606;28;20058;-80
2021/08/20 09:56:06;;;;;;;2.65;1.80;;;;;;;23.11;54.32;96823.75;5030273;28;20054;-80
2021/08/20 09:58:36;;;;;;;4.90;1.83;;;;;;;23.24;54.13;96815.31;5032377;28;20067;-80
2021/08/20 10:01:05;;;;;;;2.80;1.73;;;;;;;23.39;52.53;96816.44;5035488;28;20049;-79
2021/08/20 10:03:34;;;;;;;3.15;2.40;;;;;;;23.52;52.39;96817.84;5037795;28;20042;-80
2021/08/20 10:06:04;;;;;;;2.08;1.70;;;;;;;23.65;54.04;96820.03;5037466;28;20097;-79
2021/08/20 10:08:33;;;;;;;2.33;1.90;;;;;;;23.75;52.00;96820.09;5033684;28;20050;-80
2021/08/20 10:11:03;;;;;;;2.10;1.90;;;;;;;23.85;52.09;96817.50;5029161;28;20042;-80
2021/08/20 10:13:31;;;;;;;3.40;2.72;;;;;;;23.92;52.68;96813.75;5029454;28;20088;-79
2021/08/20 10:16:02;;;;;;;3.22;2.38;;;;;;;24.01;52.80;96814.88;5030243;28;20117;-80
2021/08/20 10:18:32;;;;;;;2.45;2.10;;;;;;;24.01;51.67;96815.66;5035788;28;20053;-80
2021/08/20 10:21:01;;;;;;;3.13;2.65;;;;;;;23.94;52.19;96823.13;5037571;28;20098;-79
2021/08/20 10:23:31;;;;;;;3.15;2.47;;;;;;;23.88;52.75;96818.81;5032366;28;20077;-83
2021/08/20 10:26:00;;;;;;;3.58;2.30;;;;;;;23.83;52.13;96822.28;5026519;28;20054;-82
2021/08/20 10:28:28;;;;;;;3.22;2.67;;;;;;;23.82;52.53;96817.19;5026630;28;20097;-82
2021/08/20 10:30:56;;;;;;;2.45;1.92;;;;;;;23.87;53.54;96819.06;5025579;28;20053;-82
2021/08/20 10:33:32;;;;;;;2.30;1.90;;;;;;;23.96;53.70;96814.84;5025374;28;20050;-82
2021/08/20 10:36:01;;;;;;;3.35;1.90;;;;;;;24.07;52.63;96816.47;5024502;28;20053;-82
2021/08/20 10:38:33;;;;;;;4.03;1.88;;;;;;;24.17;52.20;96821.81;5024841;28;20060;-82
2021/08/20 10:41:09;;;;;;;2.05;1.50;;;;;;;24.27;51.71;96811.19;5024473;28;20056;-82
2021/08/20 10:43:58;;;;;;;1.65;1.55;;;;;;;24.34;49.35;96821.59;5024296;28;20053;-82
2021/08/20 10:46:58;;;;;;;3.65;1.65;;;;;;;24.47;49.10;96810.41;5025267;28;20128;-80
2021/08/20 10:49:27;;;;;;;2.35;1.88;;;;;;;24.58;48.22;96811.25;5030030;28;20052;-81
2021/08/20 10:52:00;;;;;;;2.22;2.03;;;;;;;24.64;47.29;96810.19;5029978;28;20077;-81
2021/08/20 10:55:19;;;;;;;3.55;1.45;;;;;;;24.76;48.21;96803.78;5029162;28;20054;-80
2021/08/20 10:58:13;;;;;;;1.63;1.52;;;;;;;24.87;48.43;96805.38;5029043;28;20054;-80
2021/08/20 11:00:43;;;;;;;3.17;1.48;;;;;;;24.96;50.04;96808.28;5029344;28;20057;-80
2021/08/20 11:03:13;;;;;;;2.90;1.83;;;;;;;25.01;48.25;96798.41;5028304;28;20046;-80
2021/08/20 11:05:45;;;;;;;4.57;2.17;;;;;;;25.10;49.05;96798.66;5028364;28;20050;-80
2021/08/20 11:08:38;;;;;;;3.33;1.97;;;;;;;25.18;49.24;96802.66;5024944;28;20088;-82
2021/08/20 11:11:06;;;;;;;3.58;2.28;;;;;;;25.17;48.49;96796.53;5024844;28;20057;-82
2021/08/20 11:13:34;;;;;;;3.30;2.00;;;;;;;25.14;47.56;96796.25;5024934;28;20046;-80
2021/08/20 11:16:02;;;;;;;3.33;1.95;;;;;;;25.05;46.35;96798.66;5028775;28;20137;-80
2021/08/20 11:18:41;;;;;;;1.75;1.45;;;;;;;25.02;46.05;96802.69;5028368;28;20046;-81
2021/08/20 11:21:11;;;;;;;1.63;1.52;;;;;;;25.08;47.50;96804.28;5025257;28;20049;-82
2021/08/20 11:23:39;;;;;;;2.80;1.83;;;;;;;25.16;45.44;96804.78;5028182;28;20042;-81
2021/08/20 11:26:31;;;;;;;1.75;1.40;;;;;;;25.19;45.72;96799.75;5029543;28;20061;-80
2021/08/20 11:28:59;;;;;;;3.00;1.73;;;;;;;25.20;43.69;96800.53;5029498;28;20114;-80
2021/08/20 11:31:27;;;;;;;2.22;1.23;;;;;;;25.26;43.02;96804.81;5029626;28;20110;-80
2021/08/20 11:33:55;;;;;;;1.65;1.55;;;;;;;25.32;42.41;96801.06;5029517;28;20519;-80
2021/08/20 11:36:23;;;;;;;1.50;1.40;;;;;;;25.39;42.14;96798.88;5030544;28;20058;-80
2021/08/20 11:38:53;;;;;;;1.70;1.58;;;;;;;25.44;42.94;96798.88;5029718;28;20057;-80
2021/08/20 11:41:24;;;;;;;1.77;1.30;;;;;;;25.54;45.04;96799.91;5029695;28;20060;-81
2021/08/20 11:43:59;;;;;;;1.90;1.40;;;;;;;25.59;42.36;96802.56;5030035;28;20049;-81
2021/08/20 11:46:28;;;;;;;1.95;1.60;;;;;;;25.61;42.77;96789.75;5028992;28;20111;-81
2021/08/20 11:48:58;;;;;;;1.48;1.38;;;;;;;25.67;43.15;96793.97;5030386;28;20057;-80
2021/08/20 11:51:28;;;;;;;1.85;1.48;;;;;;;25.71;42.32;96787.00;5029491;28;20137;-80
2021/08/20 11:53:56;;;;;;;3.47;1.80;;;;;;;25.75;42.63;96788.06;5029752;28;20053;-80